createdAt,value
2022-11-14T00:02:27.158Z,99641.63
2022-11-14T00:05:13.110Z,99643.41
2022-11-14T00:07:59.580Z,99637.31
2022-11-14T00:10:48.199Z,99645.09
2022-11-14T00:13:39.889Z,99638.34
2022-11-14T00:16:25.878Z,99647.81
2022-11-14T00:19:13.371Z,99642.84
2022-11-14T00:22:03.140Z,99645.00
2022-11-14T00:24:50.203Z,99643.72
2022-11-14T00:27:36.701Z,99639.53
2022-11-14T00:30:22.943Z,99647.81
2022-11-14T00:33:09.044Z,99645.84
2022-11-14T00:35:57.525Z,99649.47
2022-11-14T00:38:43.600Z,99643.47
2022-11-14T00:41:29.825Z,99643.13
2022-11-14T00:44:16.211Z,99634.69
2022-11-14T00:47:02.563Z,99641.03
2022-11-14T00:49:48.390Z,99640.91
2022-11-14T00:52:34.405Z,99640.03
2022-11-14T00:55:21.141Z,99633.97
2022-11-14T00:58:06.961Z,99626.88
2022-11-14T01:00:53.760Z,99633.03
2022-11-14T01:03:40.323Z,99638.22
2022-11-14T01:06:26.118Z,99635.34
2022-11-14T01:09:11.849Z,99624.47
2022-11-14T01:11:58.086Z,99614.84
2022-11-14T01:14:44.198Z,99620.19
2022-11-14T01:17:30.293Z,99612.94
2022-11-14T01:20:17.259Z,99619.22
2022-11-14T01:23:03.578Z,99618.94
2022-11-14T01:25:49.586Z,99619.00
2022-11-14T01:28:35.978Z,99608.38
2022-11-14T01:31:25.180Z,99607.56
2022-11-14T01:34:10.998Z,99607.69
2022-11-14T01:36:57.066Z,99610.78
2022-11-14T01:39:42.713Z,99598.38
2022-11-14T01:42:28.635Z,99597.50
2022-11-14T01:45:51.926Z,99613.13
2022-11-14T01:49:11.527Z,99599.34
2022-11-14T01:52:05.444Z,99600.28
2022-11-14T01:54:58.854Z,99593.72
2022-11-14T01:57:48.947Z,99598.16
2022-11-14T02:00:35.094Z,99587.97
2022-11-14T02:03:21.834Z,99596.25
2022-11-14T02:06:14.870Z,99587.16
2022-11-14T02:09:05.436Z,99584.19
2022-11-14T02:11:54.515Z,99582.78
2022-11-14T02:14:45.255Z,99577.19
2022-11-14T02:17:32.585Z,99571.88
2022-11-14T02:20:22.139Z,99578.84
2022-11-14T02:23:08.095Z,99574.97
2022-11-14T02:25:55.348Z,99574.25
2022-11-14T02:28:41.121Z,99567.28
2022-11-14T02:31:27.196Z,99571.66
2022-11-14T02:34:16.730Z,99569.06
2022-11-14T02:37:03.027Z,99571.47
2022-11-14T02:39:48.841Z,99570.78
2022-11-14T02:42:34.972Z,99577.50
2022-11-14T02:45:21.122Z,99580.44
2022-11-14T02:48:07.331Z,99574.84
2022-11-14T02:50:53.187Z,99583.28
2022-11-14T02:53:39.834Z,99574.59
2022-11-14T02:56:25.899Z,99581.88
2022-11-14T02:59:11.819Z,99576.56
2022-11-14T03:01:57.773Z,99578.28
2022-11-14T03:04:43.721Z,99577.00
2022-11-14T03:07:29.614Z,99569.34
2022-11-14T03:10:15.915Z,99574.53
2022-11-14T03:13:01.832Z,99574.97
2022-11-14T03:15:48.247Z,99573.75
2022-11-14T03:18:35.681Z,99575.84
2022-11-14T03:21:23.951Z,99563.91
2022-11-14T03:24:09.949Z,99565.16
2022-11-14T03:26:56.137Z,99566.50
2022-11-14T03:29:42.446Z,99567.03
2022-11-14T03:32:28.359Z,99568.50
2022-11-14T03:35:14.275Z,99570.09
2022-11-14T03:38:00.262Z,99577.31
2022-11-14T03:40:46.066Z,99581.19
2022-11-14T03:43:34.662Z,99570.88
2022-11-14T03:46:21.808Z,99568.19
2022-11-14T03:49:08.023Z,99565.72
2022-11-14T03:51:54.017Z,99563.31
2022-11-14T03:54:39.796Z,99551.69
2022-11-14T03:57:25.788Z,99557.88
2022-11-14T04:00:12.905Z,99560.69
2022-11-14T04:02:59.120Z,99548.53
2022-11-14T04:05:46.090Z,99544.03
2022-11-14T04:08:33.249Z,99560.03
2022-11-14T04:11:20.009Z,99560.38
2022-11-14T04:14:06.311Z,99554.78
2022-11-14T04:16:52.548Z,99564.84
2022-11-14T04:19:38.534Z,99562.41
2022-11-14T04:22:24.417Z,99557.97
2022-11-14T04:25:10.925Z,99553.94
2022-11-14T04:27:57.478Z,99555.22
2022-11-14T04:30:45.240Z,99546.69
2022-11-14T04:33:31.799Z,99551.88
2022-11-14T04:36:17.842Z,99550.16
2022-11-14T04:39:03.983Z,99552.25
2022-11-14T04:41:50.226Z,99543.22
2022-11-14T04:44:36.049Z,99543.06
2022-11-14T04:47:21.928Z,99547.34
2022-11-14T04:50:09.914Z,99549.09
2022-11-14T04:52:55.830Z,99548.53
2022-11-14T04:55:43.649Z,99551.94
2022-11-14T04:58:31.193Z,99546.44
2022-11-14T05:01:17.843Z,99550.09
2022-11-14T05:04:04.462Z,99553.06
2022-11-14T05:06:50.787Z,99553.97
2022-11-14T05:09:37.511Z,99553.16
2022-11-14T05:12:23.416Z,99556.81
2022-11-14T05:15:10.142Z,99548.03
2022-11-14T05:17:58.883Z,99556.56
2022-11-14T05:20:45.092Z,99554.00
2022-11-14T05:23:31.546Z,99546.28
2022-11-14T05:26:18.919Z,99557.91
2022-11-14T05:29:05.442Z,99555.59
2022-11-14T05:31:51.588Z,99569.16
2022-11-14T05:34:37.433Z,99567.41
2022-11-14T05:37:23.333Z,99562.50
2022-11-14T05:40:10.276Z,99562.34
2022-11-14T05:42:56.722Z,99553.44
2022-11-14T05:45:43.346Z,99556.88
2022-11-14T05:48:30.853Z,99554.41
2022-11-14T05:51:18.388Z,99552.88
2022-11-14T05:54:05.090Z,99540.47
2022-11-14T05:56:51.314Z,99533.72
2022-11-14T05:59:37.436Z,99535.56
2022-11-14T06:02:23.574Z,99534.31
2022-11-14T06:05:10.700Z,99534.94
2022-11-14T06:07:58.867Z,99542.00
2022-11-14T06:10:44.991Z,99548.56
2022-11-14T06:13:32.082Z,99531.09
2022-11-14T06:16:19.817Z,99534.53
2022-11-14T06:19:05.860Z,99521.56
2022-11-14T06:21:51.708Z,99522.53
2022-11-14T06:24:37.570Z,99518.00
2022-11-14T06:27:23.532Z,99524.81
2022-11-14T06:30:10.589Z,99522.56
2022-11-14T06:32:59.052Z,99511.66
2022-11-14T06:35:45.305Z,99509.56
2022-11-14T06:38:33.413Z,99499.03
2022-11-14T06:41:21.849Z,99512.88
2022-11-14T06:44:09.745Z,99534.72
2022-11-14T06:46:56.485Z,99542.28
2022-11-14T06:49:42.391Z,99556.25
2022-11-14T06:52:28.237Z,99551.41
2022-11-14T06:55:14.930Z,99548.63
2022-11-14T06:58:01.087Z,99558.84
2022-11-14T07:00:47.182Z,99544.00
2022-11-14T07:03:34.153Z,99522.19
2022-11-14T07:06:31.707Z,99511.47
2022-11-14T07:09:19.249Z,99509.28
2022-11-14T07:12:05.246Z,99520.72
2022-11-14T07:14:52.842Z,99515.34
2022-11-14T07:17:38.759Z,99526.56
2022-11-14T07:20:25.230Z,99536.22
2022-11-14T07:23:13.046Z,99533.22
2022-11-14T07:26:08.117Z,99538.25
2022-11-14T07:28:57.906Z,99537.19
2022-11-14T07:31:48.757Z,99540.38
2022-11-14T07:34:34.558Z,99542.19
2022-11-14T07:37:21.051Z,99525.19
2022-11-14T07:40:08.307Z,99515.34
2022-11-14T07:43:02.575Z,99532.78
2022-11-14T07:45:48.840Z,99537.78
2022-11-14T07:48:35.877Z,99527.53
2022-11-14T07:51:22.112Z,99518.53
2022-11-14T07:54:12.003Z,99526.13
2022-11-14T07:56:58.891Z,99537.53
2022-11-14T07:59:45.182Z,99531.25
2022-11-14T08:02:31.189Z,99536.31
2022-11-14T08:05:18.302Z,99542.28
2022-11-14T08:08:05.069Z,99533.50
2022-11-14T08:10:50.947Z,99532.91
2022-11-14T08:13:36.958Z,99526.94
2022-11-14T08:16:22.903Z,99517.38
2022-11-14T08:19:08.891Z,99515.31
2022-11-14T08:21:54.827Z,99538.88
2022-11-14T08:24:41.238Z,99529.28
2022-11-14T08:27:27.388Z,99509.97
2022-11-14T08:30:14.383Z,99510.75
2022-11-14T08:33:08.391Z,99495.00
2022-11-14T08:35:54.567Z,99494.97
2022-11-14T08:38:40.923Z,99511.72
2022-11-14T08:41:27.947Z,99490.91
2022-11-14T08:44:14.003Z,99498.56
2022-11-14T08:47:00.509Z,99481.28
2022-11-14T08:49:47.080Z,99476.44
2022-11-14T08:52:34.284Z,99486.63
2022-11-14T08:55:21.026Z,99467.00
2022-11-14T08:58:07.024Z,99474.94
2022-11-14T09:00:53.097Z,99488.28
2022-11-14T09:03:39.631Z,99478.31
2022-11-14T09:06:26.195Z,99483.91
2022-11-14T09:09:12.252Z,99481.16
2022-11-14T09:11:58.203Z,99466.84
2022-11-14T09:14:44.997Z,99451.97
2022-11-14T09:17:30.740Z,99472.00
2022-11-14T09:20:17.159Z,99459.13
2022-11-14T09:23:04.059Z,99449.50
2022-11-14T09:25:50.369Z,99464.84
2022-11-14T09:28:37.507Z,99461.88
2022-11-14T09:31:23.498Z,99452.44
2022-11-14T09:34:09.412Z,99441.97
2022-11-14T09:36:55.518Z,99450.38
2022-11-14T09:39:41.575Z,99438.94
2022-11-14T09:43:22.509Z,99436.22
2022-11-14T09:46:39.323Z,99433.06
2022-11-14T09:49:43.539Z,99434.22
2022-11-14T09:52:39.640Z,99426.56
2022-11-14T09:55:36.563Z,99423.75
2022-11-14T09:58:23.321Z,99406.56
2022-11-14T10:01:43.486Z,99408.97
2022-11-14T10:05:12.345Z,99408.69
2022-11-14T10:08:29.369Z,99400.94
2022-11-14T10:11:57.597Z,99391.69
2022-11-14T10:15:33.879Z,99359.31
2022-11-14T10:18:50.081Z,99375.25
2022-11-14T10:22:16.138Z,99399.72
2022-11-14T10:25:27.841Z,99380.59
2022-11-14T10:28:46.035Z,99365.75
2022-11-14T10:31:40.729Z,99364.00
2022-11-14T10:34:50.420Z,99357.78
2022-11-14T10:38:03.005Z,99352.22
2022-11-14T10:40:55.977Z,99348.50
2022-11-14T10:43:47.744Z,99361.56
2022-11-14T10:46:41.802Z,99348.41
2022-11-14T10:49:36.156Z,99336.75
2022-11-14T10:52:38.931Z,99315.16
2022-11-14T10:55:57.378Z,99340.97
2022-11-14T10:58:46.786Z,99316.56
2022-11-14T11:01:55.992Z,99319.94
2022-11-14T11:04:44.970Z,99326.53
2022-11-14T11:08:15.001Z,99307.59
2022-11-14T11:11:32.533Z,99318.19
2022-11-14T11:14:19.957Z,99305.44
2022-11-14T11:17:20.895Z,99289.91
2022-11-14T11:20:29.279Z,99279.66
2022-11-14T11:23:25.537Z,99291.19
2022-11-14T11:26:28.614Z,99276.22
2022-11-14T11:29:14.834Z,99292.28
2022-11-14T11:32:01.482Z,99283.09
2022-11-14T11:34:48.854Z,99282.34
2022-11-14T11:37:42.879Z,99275.19
2022-11-14T11:40:30.784Z,99274.16
2022-11-14T11:43:39.312Z,99277.38
2022-11-14T11:46:55.369Z,99276.25
2022-11-14T11:49:54.332Z,99269.06
2022-11-14T11:53:23.349Z,99272.38
2022-11-14T11:56:20.994Z,99278.31
2022-11-14T11:59:37.299Z,99277.13
2022-11-14T12:02:26.921Z,99265.66
2022-11-14T12:05:34.463Z,99269.03
2022-11-14T12:09:14.220Z,99267.16
2022-11-14T12:12:44.769Z,99262.19
2022-11-14T12:15:48.790Z,99251.31
2022-11-14T12:18:47.298Z,99256.19
2022-11-14T12:21:48.391Z,99267.41
2022-11-14T12:25:32.730Z,99269.63
2022-11-14T12:28:59.062Z,99269.44
2022-11-14T12:31:46.714Z,99261.41
2022-11-14T12:34:39.065Z,99259.91
2022-11-14T12:37:34.372Z,99250.59
2022-11-14T12:40:26.706Z,99251.06
2022-11-14T12:43:40.859Z,99239.16
2022-11-14T12:46:27.314Z,99234.31
2022-11-14T12:49:47.497Z,99236.97
2022-11-14T12:52:44.271Z,99249.09
2022-11-14T12:55:31.680Z,99250.69
2022-11-14T12:58:43.425Z,99240.56
2022-11-14T13:01:53.879Z,99240.16
2022-11-14T13:04:42.977Z,99234.78
2022-11-14T13:07:34.671Z,99231.47
2022-11-14T13:10:31.828Z,99236.16
2022-11-14T13:13:37.254Z,99238.34
2022-11-14T13:16:51.098Z,99230.22
2022-11-14T13:20:05.357Z,99236.00
2022-11-14T13:22:51.602Z,99239.31
2022-11-14T13:25:38.305Z,99228.63
2022-11-14T13:28:37.706Z,99227.94
2022-11-14T13:31:42.890Z,99226.78
2022-11-14T13:35:03.382Z,99226.19
2022-11-14T13:37:59.118Z,99222.06
2022-11-14T13:40:56.962Z,99210.53
2022-11-14T13:44:16.639Z,99221.47
2022-11-14T13:47:23.853Z,99222.47
2022-11-14T13:50:26.806Z,99214.78
2022-11-14T13:53:24.885Z,99209.31
2022-11-14T13:57:03.415Z,99212.75
2022-11-14T14:00:07.668Z,99207.59
2022-11-14T14:03:31.744Z,99204.38
2022-11-14T14:06:32.673Z,99207.34
2022-11-14T14:09:32.090Z,99210.38
2022-11-14T14:12:48.798Z,99202.25
2022-11-14T14:15:59.275Z,99193.34
2022-11-14T14:19:19.540Z,99196.25
2022-11-14T14:22:49.317Z,99211.38
2022-11-14T14:25:56.016Z,99202.66
2022-11-14T14:28:56.216Z,99202.22
2022-11-14T14:31:43.805Z,99200.94
2022-11-14T14:34:34.419Z,99210.59
2022-11-14T14:37:24.432Z,99205.97
2022-11-14T14:40:35.822Z,99209.53
2022-11-14T14:43:35.965Z,99206.84
2022-11-14T14:46:33.733Z,99202.03
2022-11-14T14:49:34.983Z,99195.06
2022-11-14T14:52:31.732Z,99197.97
2022-11-14T14:55:32.723Z,99188.88
2022-11-14T14:58:23.218Z,99185.44
2022-11-14T15:01:15.828Z,99199.34
2022-11-14T15:04:07.018Z,99197.63
2022-11-14T15:06:57.441Z,99198.28
2022-11-14T15:10:00.788Z,99205.63
2022-11-14T15:12:47.848Z,99206.16
2022-11-14T15:15:35.093Z,99189.94
2022-11-14T15:18:32.600Z,99204.09
2022-11-14T15:21:23.409Z,99198.25
2022-11-14T15:24:17.017Z,99194.72
2022-11-14T15:27:14.828Z,99196.22
2022-11-14T15:30:05.648Z,99193.78
2022-11-14T15:32:58.628Z,99187.59
2022-11-14T15:35:44.762Z,99194.66
2022-11-14T15:38:47.169Z,99192.03
2022-11-14T15:41:34.376Z,99189.09
2022-11-14T15:44:34.846Z,99189.59
2022-11-14T15:47:29.771Z,99191.53
2022-11-14T15:50:16.100Z,99191.22
2022-11-14T15:53:06.809Z,99187.34
2022-11-14T15:55:53.227Z,99187.88
2022-11-14T15:58:44.183Z,99184.00
2022-11-14T16:01:34.985Z,99195.31
2022-11-14T16:04:28.331Z,99194.19
2022-11-14T16:07:16.984Z,99186.00
2022-11-14T16:10:03.755Z,99196.19
2022-11-14T16:12:52.617Z,99202.88
2022-11-14T16:15:38.940Z,99197.84
2022-11-14T16:18:25.303Z,99195.69
2022-11-14T16:21:18.302Z,99187.50
2022-11-14T16:24:06.366Z,99185.53
2022-11-14T16:26:52.571Z,99190.63
2022-11-14T16:29:38.831Z,99195.72
2022-11-14T16:32:28.342Z,99191.13
2022-11-14T16:35:18.167Z,99190.09
2022-11-14T16:38:04.406Z,99184.56
2022-11-14T16:40:50.304Z,99180.78
2022-11-14T16:43:36.718Z,99177.31
2022-11-14T16:46:24.340Z,99179.06
2022-11-14T16:49:15.861Z,99178.56
2022-11-14T16:52:07.214Z,99178.63
2022-11-14T16:54:53.539Z,99178.88
2022-11-14T16:57:40.824Z,99173.94
2022-11-14T17:00:27.920Z,99174.06
2022-11-14T17:03:14.621Z,99167.50
2022-11-14T17:06:00.837Z,99160.44
2022-11-14T17:08:47.833Z,99161.88
2022-11-14T17:11:33.762Z,99162.19
2022-11-14T17:14:20.861Z,99157.75
2022-11-14T17:17:07.675Z,99161.25
2022-11-14T17:19:55.663Z,99158.94
2022-11-14T17:22:41.597Z,99153.91
2022-11-14T17:25:31.652Z,99157.03
2022-11-14T17:28:19.262Z,99162.94
2022-11-14T17:31:09.381Z,99155.53
2022-11-14T17:33:58.205Z,99157.22
2022-11-14T17:36:44.589Z,99150.50
2022-11-14T17:39:30.564Z,99149.06
2022-11-14T17:42:17.128Z,99148.59
2022-11-14T17:45:03.590Z,99154.81
2022-11-14T17:47:57.862Z,99147.31
2022-11-14T17:50:44.533Z,99140.97
2022-11-14T17:53:34.298Z,99142.94
2022-11-14T17:56:26.906Z,99142.47
2022-11-14T17:59:12.597Z,99137.38
2022-11-14T18:02:00.217Z,99142.56
2022-11-14T18:04:47.137Z,99142.09
2022-11-14T18:07:33.614Z,99137.72
2022-11-14T18:10:20.124Z,99134.03
2022-11-14T18:13:06.242Z,99127.03
2022-11-14T18:15:52.654Z,99127.41
2022-11-14T18:18:39.146Z,99128.56
2022-11-14T18:21:27.812Z,99123.50
2022-11-14T18:24:15.836Z,99121.38
2022-11-14T18:27:01.768Z,99117.31
2022-11-14T18:29:48.572Z,99125.16
2022-11-14T18:32:35.116Z,99130.84
2022-11-14T18:35:21.444Z,99125.78
2022-11-14T18:38:07.720Z,99117.97
2022-11-14T18:40:57.313Z,99122.34
2022-11-14T18:43:47.060Z,99120.06
2022-11-14T18:46:37.373Z,99119.91
2022-11-14T18:49:24.127Z,99129.22
2022-11-14T18:52:15.772Z,99125.94
2022-11-14T18:55:04.849Z,99119.75
2022-11-14T18:57:51.028Z,99121.72
2022-11-14T19:00:37.212Z,99128.91
2022-11-14T19:03:23.511Z,99126.25
2022-11-14T19:06:13.014Z,99122.50
2022-11-14T19:09:02.770Z,99113.34
2022-11-14T19:12:09.984Z,99123.44
2022-11-14T19:14:56.672Z,99118.72
2022-11-14T19:17:43.104Z,99115.06
2022-11-14T19:20:29.081Z,99113.91
2022-11-14T19:23:15.062Z,99113.91
2022-11-14T19:26:02.720Z,99113.78
2022-11-14T19:28:49.713Z,99116.72
2022-11-14T19:31:36.556Z,99117.22
2022-11-14T19:34:22.274Z,99115.59
2022-11-14T19:37:08.625Z,99104.84
2022-11-14T19:39:56.523Z,99114.94
2022-11-14T19:42:43.830Z,99115.72
2022-11-14T19:45:34.622Z,99116.00
2022-11-14T19:48:21.049Z,99100.94
2022-11-14T19:51:11.761Z,99116.06
2022-11-14T19:53:59.523Z,99109.78
2022-11-14T19:56:45.787Z,99108.63
2022-11-14T19:59:31.690Z,99111.84
2022-11-14T20:02:17.696Z,99098.94
2022-11-14T20:05:03.570Z,99106.22
2022-11-14T20:07:49.473Z,99099.56
2022-11-14T20:10:47.667Z,99101.19
2022-11-14T20:13:37.991Z,99093.97
2022-11-14T20:16:29.030Z,99103.38
2022-11-14T20:19:16.186Z,99098.66
2022-11-14T20:22:03.002Z,99103.59
2022-11-14T20:24:49.157Z,99092.25
2022-11-14T20:27:35.782Z,99092.44
2022-11-14T20:30:21.799Z,99095.75
2022-11-14T20:33:10.746Z,99091.63
2022-11-14T20:36:03.795Z,99091.72
2022-11-14T20:38:51.393Z,99095.94
2022-11-14T20:41:39.195Z,99095.94
2022-11-14T20:44:25.123Z,99086.16
2022-11-14T20:47:11.458Z,99088.50
2022-11-14T20:49:57.466Z,99086.53
2022-11-14T20:52:46.914Z,99080.66
2022-11-14T20:55:32.943Z,99087.38
2022-11-14T20:58:21.778Z,99082.84
2022-11-14T21:01:09.208Z,99089.03
2022-11-14T21:03:56.287Z,99086.06
2022-11-14T21:06:42.127Z,99078.09
2022-11-14T21:09:29.618Z,99075.19
2022-11-14T21:12:15.478Z,99073.88
2022-11-14T21:15:01.485Z,99078.38
2022-11-14T21:17:47.625Z,99078.72
2022-11-14T21:20:33.733Z,99076.66
2022-11-14T21:23:19.995Z,99073.84
2022-11-14T21:26:08.856Z,99076.75
2022-11-14T21:29:04.622Z,99067.63
2022-11-14T21:31:50.526Z,99062.44
2022-11-14T21:34:36.724Z,99073.66
2022-11-14T21:37:23.384Z,99070.63
2022-11-14T21:40:10.288Z,99056.00
2022-11-14T21:42:56.224Z,99063.28
2022-11-14T21:45:42.506Z,99067.47
2022-11-14T21:48:42.585Z,99066.00
2022-11-14T21:51:29.713Z,99071.50
2022-11-14T21:54:15.843Z,99066.25
2022-11-14T21:57:05.578Z,99075.50
2022-11-14T21:59:56.089Z,99068.75
2022-11-14T22:03:00.691Z,99064.81
2022-11-14T22:05:46.883Z,99057.91
2022-11-14T22:08:33.810Z,99067.44
2022-11-14T22:11:23.255Z,99082.75
2022-11-14T22:14:09.451Z,99070.94
2022-11-14T22:16:55.381Z,99073.97
2022-11-14T22:19:41.414Z,99078.16
2022-11-14T22:22:28.699Z,99074.94
2022-11-14T22:25:15.075Z,99071.44
2022-11-14T22:28:01.072Z,99067.31
2022-11-14T22:30:46.980Z,99063.88
2022-11-14T22:33:44.061Z,99063.34
2022-11-14T22:36:33.317Z,99054.81
2022-11-14T22:39:19.767Z,99041.63
2022-11-14T22:42:05.952Z,99055.28
2022-11-14T22:44:52.221Z,99048.47
2022-11-14T22:47:39.674Z,99041.63
2022-11-14T22:50:25.698Z,99042.75
2022-11-14T22:53:12.738Z,99043.09
2022-11-14T22:56:01.538Z,99029.63
2022-11-14T22:58:48.630Z,99031.50
2022-11-14T23:01:35.614Z,99031.00
2022-11-14T23:04:21.489Z,99028.66
2022-11-14T23:07:07.808Z,99027.34
2022-11-14T23:09:54.197Z,99025.78
2022-11-14T23:12:40.397Z,99031.47
2022-11-14T23:15:27.014Z,99018.78
2022-11-14T23:18:13.090Z,99017.44
2022-11-14T23:21:19.054Z,99034.66
2022-11-14T23:24:10.941Z,99034.78
2022-11-14T23:26:56.913Z,99028.94
2022-11-14T23:29:42.676Z,99027.47
2022-11-14T23:32:28.876Z,99026.16
2022-11-14T23:35:15.184Z,99022.31
2022-11-14T23:38:07.634Z,99024.44
2022-11-14T23:40:56.432Z,99033.06
2022-11-14T23:43:42.254Z,99030.66
2022-11-14T23:46:28.077Z,99023.22
2022-11-14T23:49:14.126Z,99022.22
2022-11-14T23:52:00.878Z,99028.75
2022-11-14T23:54:46.693Z,99023.19
2022-11-14T23:57:32.555Z,99031.63
